Terminal Aerodrome Forecast
Issued by NWS

Current Version | Previous Version | Text Only | Print | Product List | Glossary On
Versions: 1 2 3 4 5 6 7 8 9 10 11 12 13 14 15 16 17 18 19 20 21 22 23 24 25 26 27
000 FTUS41 KBOX 031120 TAFHYA TAF KHYA 031120Z 0312/0412 21009KT P6SM BKN250 FM031500 20013G20KT P6SM BKN250 FM040300 21011G18KT P6SM BKN003=

USA.gov is the U.S. government's official web portal to all federal, state and local government web resources and services.